createdAt,value
2018-05-25T00:00:09.823Z,99.60
2018-05-25T00:02:38.802Z,99.95
2018-05-25T00:05:07.847Z,99.80
2018-05-25T00:07:36.859Z,99.49
2018-05-25T00:10:05.826Z,99.68
2018-05-25T00:12:34.836Z,99.70
2018-05-25T00:15:03.851Z,99.92
2018-05-25T00:17:32.092Z,99.82
2018-05-25T00:20:00.312Z,99.76
2018-05-25T00:22:28.551Z,99.57
2018-05-25T00:24:56.773Z,98.91
2018-05-25T00:27:25.075Z,98.76
2018-05-25T00:29:53.311Z,98.56
2018-05-25T00:32:21.565Z,98.59
2018-05-25T00:34:49.819Z,98.43
2018-05-25T00:37:18.064Z,96.98
2018-05-25T00:39:47.075Z,96.48
2018-05-25T00:42:16.046Z,96.24
2018-05-25T00:44:45.095Z,96.54
2018-05-25T00:47:13.331Z,96.46
2018-05-25T00:49:41.556Z,96.43
2018-05-25T00:52:09.885Z,96.38
2018-05-25T00:54:38.088Z,96.76
2018-05-25T00:57:06.370Z,96.14
2018-05-25T00:59:34.646Z,95.91
2018-05-25T01:02:02.888Z,96.07
2018-05-25T01:04:31.151Z,95.74
2018-05-25T01:06:59.333Z,94.81
2018-05-25T01:09:27.634Z,94.30
2018-05-25T01:11:55.893Z,93.73
2018-05-25T01:14:24.135Z,93.84
2018-05-25T01:16:52.375Z,94.27
2018-05-25T01:19:20.627Z,93.87
2018-05-25T01:21:49.626Z,93.60
2018-05-25T01:24:18.651Z,93.72
2018-05-25T01:26:46.898Z,93.80
2018-05-25T01:29:15.161Z,94.32
2018-05-25T01:31:43.424Z,94.43
2018-05-25T01:34:11.678Z,95.61
2018-05-25T01:36:39.885Z,95.78
2018-05-25T01:39:08.171Z,95.75
2018-05-25T01:41:37.187Z,95.83
2018-05-25T01:44:06.218Z,96.45
2018-05-25T01:46:34.459Z,96.59
2018-05-25T01:49:02.711Z,97.09
2018-05-25T01:51:30.930Z,97.37
2018-05-25T01:53:59.210Z,97.40
2018-05-25T01:56:27.465Z,97.55
2018-05-25T01:58:55.708Z,98.16
2018-05-25T02:01:24.724Z,98.36
2018-05-25T02:03:53.689Z,98.56
2018-05-25T02:06:22.741Z,98.95
2018-05-25T02:08:51.746Z,98.59
2018-05-25T02:11:20.755Z,98.83
2018-05-25T02:13:49.809Z,99.35
2018-05-25T02:16:19.518Z,99.65
2018-05-25T02:18:47.756Z,99.87
2018-05-25T02:21:16.023Z,100.00
2018-05-25T02:23:44.259Z,100.00
2018-05-25T02:26:12.518Z,100.00
2018-05-25T02:28:40.768Z,100.00
2018-05-25T02:31:09.028Z,100.00
2018-05-25T02:33:37.275Z,100.00
2018-05-25T02:36:05.530Z,100.00
2018-05-25T02:38:33.813Z,100.00
2018-05-25T02:41:02.761Z,100.00
2018-05-25T02:43:31.043Z,100.00
2018-05-25T02:45:59.311Z,100.00
2018-05-25T02:48:27.555Z,100.00
2018-05-25T02:50:55.835Z,100.00
2018-05-25T02:53:24.080Z,100.00
2018-05-25T02:55:52.329Z,100.00
2018-05-25T02:58:20.572Z,100.00
2018-05-25T03:00:48.847Z,100.00
2018-05-25T03:03:17.085Z,100.00
2018-05-25T03:05:46.116Z,100.00
2018-05-25T03:08:14.376Z,100.00
2018-05-25T03:10:43.988Z,100.00
2018-05-25T03:13:12.227Z,100.00
2018-05-25T03:15:40.475Z,100.00
2018-05-25T03:18:09.474Z,100.00
2018-05-25T03:20:38.493Z,100.00
2018-05-25T03:23:07.502Z,100.00
2018-05-25T03:25:36.532Z,100.00
2018-05-25T03:28:04.782Z,100.00
2018-05-25T03:30:33.828Z,100.00
2018-05-25T03:33:02.068Z,100.00
2018-05-25T03:35:30.314Z,100.00
2018-05-25T03:37:58.590Z,100.00
2018-05-25T03:40:26.830Z,100.00
2018-05-25T03:42:55.065Z,100.00
2018-05-25T03:45:23.291Z,100.00
2018-05-25T03:47:51.554Z,100.00
2018-05-25T03:50:19.799Z,100.00
2018-05-25T03:52:48.775Z,100.00
2018-05-25T03:55:17.816Z,100.00
2018-05-25T03:57:46.834Z,100.00
2018-05-25T04:00:32.815Z,100.00
2018-05-25T04:03:01.076Z,100.00
2018-05-25T04:05:29.317Z,100.00
2018-05-25T04:07:58.357Z,100.00
2018-05-25T04:10:26.604Z,100.00
2018-05-25T04:12:55.634Z,100.00
2018-05-25T04:15:23.888Z,100.00
2018-05-25T04:17:52.950Z,100.00
2018-05-25T04:20:21.204Z,100.00
2018-05-25T04:22:50.235Z,100.00
2018-05-25T04:25:18.486Z,100.00
2018-05-25T04:27:47.518Z,100.00
2018-05-25T04:30:15.763Z,100.00
2018-05-25T04:32:44.000Z,100.00
2018-05-25T04:35:12.286Z,100.00
2018-05-25T04:37:40.547Z,100.00
2018-05-25T04:40:09.576Z,100.00
2018-05-25T04:42:37.850Z,100.00
2018-05-25T04:45:06.816Z,100.00
2018-05-25T04:47:35.877Z,99.74
2018-05-25T04:50:04.123Z,99.38
2018-05-25T04:52:32.441Z,88.96
2018-05-25T04:55:01.410Z,76.30
2018-05-25T04:57:30.466Z,70.69
2018-05-25T04:59:58.752Z,68.54
2018-05-25T05:02:26.984Z,68.07
2018-05-25T05:04:55.288Z,68.40
2018-05-25T05:07:23.491Z,66.04
2018-05-25T05:09:51.747Z,67.05
2018-05-25T05:12:19.987Z,65.92
2018-05-25T05:14:49.000Z,66.23
2018-05-25T05:17:18.003Z,64.35
2018-05-25T05:19:47.015Z,64.86
2018-05-25T05:22:15.251Z,65.62
2018-05-25T05:24:43.511Z,65.56
2018-05-25T05:27:11.800Z,65.78
2018-05-25T05:29:40.797Z,64.78
2018-05-25T05:32:09.023Z,65.16
2018-05-25T05:34:37.286Z,64.91
2018-05-25T05:37:05.519Z,67.08
2018-05-25T05:39:33.759Z,67.42
2018-05-25T05:42:02.014Z,67.52
2018-05-25T05:44:31.012Z,68.63
2018-05-25T05:47:00.004Z,67.28
2018-05-25T05:49:28.271Z,66.46
2018-05-25T05:51:56.495Z,66.43
2018-05-25T05:54:24.785Z,66.22
2018-05-25T05:56:53.019Z,65.45
2018-05-25T05:59:21.272Z,66.36
2018-05-25T06:01:50.236Z,66.70
2018-05-25T06:04:19.330Z,67.04
2018-05-25T06:06:48.291Z,67.44
2018-05-25T06:09:17.319Z,68.91
2018-05-25T06:11:45.560Z,66.19
2018-05-25T06:14:13.816Z,66.78
2018-05-25T06:16:42.153Z,68.38
2018-05-25T06:19:10.387Z,65.14
2018-05-25T06:21:38.678Z,64.84
2018-05-25T06:24:06.902Z,65.72
2018-05-25T06:26:35.158Z,66.96
2018-05-25T06:29:03.387Z,65.03
2018-05-25T06:31:31.647Z,66.52
2018-05-25T06:34:00.650Z,65.18
2018-05-25T06:36:28.942Z,64.78
2018-05-25T06:38:57.192Z,64.53
2018-05-25T06:41:26.219Z,62.75
2018-05-25T06:43:55.178Z,62.67
2018-05-25T06:46:23.412Z,66.15
2018-05-25T06:48:51.684Z,66.75
2018-05-25T06:51:19.952Z,65.42
2018-05-25T06:53:49.057Z,65.92
2018-05-25T06:56:17.333Z,67.48
2018-05-25T06:58:45.539Z,65.72
2018-05-25T07:01:13.871Z,66.60
2018-05-25T07:03:42.078Z,66.56
2018-05-25T07:06:11.148Z,66.53
2018-05-25T07:08:39.381Z,66.80
2018-05-25T07:11:07.623Z,65.37
2018-05-25T07:13:35.849Z,65.45
2018-05-25T07:16:04.109Z,63.64
2018-05-25T07:18:32.393Z,62.60
2018-05-25T07:21:00.614Z,65.29
2018-05-25T07:23:29.641Z,64.27
2018-05-25T07:25:57.898Z,61.53
2018-05-25T07:28:26.162Z,62.02
2018-05-25T07:30:54.440Z,64.17
2018-05-25T07:33:22.753Z,65.55
2018-05-25T07:35:51.762Z,64.17
2018-05-25T07:38:20.027Z,64.29
2018-05-25T07:40:49.041Z,65.67
2018-05-25T07:43:17.307Z,64.16
2018-05-25T07:45:46.320Z,61.87
2018-05-25T07:48:15.366Z,60.36
2018-05-25T07:50:43.603Z,62.91
2018-05-25T07:53:11.883Z,62.84
2018-05-25T07:55:40.130Z,60.76
2018-05-25T07:58:08.391Z,62.48
2018-05-25T08:00:37.415Z,60.65
2018-05-25T08:03:05.679Z,61.26
2018-05-25T08:05:34.691Z,62.91
2018-05-25T08:08:03.717Z,59.56
2018-05-25T08:10:32.755Z,61.13
2018-05-25T08:13:00.995Z,62.37
2018-05-25T08:15:30.012Z,58.62
2018-05-25T08:17:59.056Z,60.75
2018-05-25T08:20:27.308Z,62.20
2018-05-25T08:22:55.571Z,60.49
2018-05-25T08:25:24.588Z,61.38
2018-05-25T08:27:53.614Z,61.13
2018-05-25T08:30:21.940Z,63.84
2018-05-25T08:32:50.114Z,63.33
2018-05-25T08:35:18.367Z,62.95
2018-05-25T08:37:47.390Z,59.58
2018-05-25T08:40:15.627Z,59.29
2018-05-25T08:42:43.898Z,59.71
2018-05-25T08:45:12.143Z,59.64
2018-05-25T08:47:40.362Z,59.07
2018-05-25T08:50:08.611Z,56.82
2018-05-25T08:52:36.953Z,55.60
2018-05-25T08:55:05.223Z,54.85
2018-05-25T08:57:33.481Z,58.93
2018-05-25T09:00:02.495Z,58.28
2018-05-25T09:02:31.517Z,57.86
2018-05-25T09:04:59.755Z,57.48
2018-05-25T09:07:28.016Z,58.25
2018-05-25T09:09:56.291Z,57.13
2018-05-25T09:12:24.532Z,57.89
2018-05-25T09:14:52.795Z,56.34
2018-05-25T09:17:21.003Z,57.42
2018-05-25T09:19:49.306Z,57.67
2018-05-25T09:22:18.323Z,56.26
2018-05-25T09:24:47.314Z,55.30
2018-05-25T09:27:15.587Z,55.38
2018-05-25T09:29:43.851Z,56.97
2018-05-25T09:32:12.082Z,55.15
2018-05-25T09:34:41.120Z,53.61
2018-05-25T09:37:09.363Z,52.27
2018-05-25T09:39:37.607Z,54.79
2018-05-25T09:42:06.725Z,57.85
2018-05-25T09:44:35.019Z,54.05
2018-05-25T09:47:03.251Z,55.19
2018-05-25T09:49:32.275Z,56.51
2018-05-25T09:52:00.519Z,56.13
2018-05-25T09:54:28.787Z,54.30
2018-05-25T09:57:01.619Z,54.10
2018-05-25T09:59:29.871Z,56.81
2018-05-25T10:01:58.160Z,52.62
2018-05-25T10:04:26.434Z,51.75
2018-05-25T10:06:54.670Z,54.44
2018-05-25T10:09:22.941Z,52.97
2018-05-25T10:11:51.191Z,53.21
2018-05-25T10:14:19.447Z,53.60
2018-05-25T10:16:47.728Z,53.35
2018-05-25T10:19:15.931Z,53.11
2018-05-25T10:21:44.182Z,49.12
2018-05-25T10:24:13.226Z,50.35
2018-05-25T10:26:42.261Z,50.04
2018-05-25T10:29:10.499Z,49.33
2018-05-25T10:31:38.718Z,49.19
2018-05-25T10:34:06.994Z,49.42
2018-05-25T10:36:35.246Z,46.87
2018-05-25T10:39:03.479Z,50.08
2018-05-25T10:41:32.466Z,47.70
2018-05-25T10:44:00.767Z,45.90
2018-05-25T10:46:29.808Z,44.39
2018-05-25T10:48:58.059Z,44.21
2018-05-25T10:51:26.320Z,43.79
2018-05-25T10:53:54.556Z,44.84
2018-05-25T10:56:24.173Z,44.38
2018-05-25T10:58:53.175Z,45.73
2018-05-25T11:01:22.944Z,45.06
2018-05-25T11:03:51.153Z,43.75
2018-05-25T11:06:20.211Z,43.55
2018-05-25T11:08:48.447Z,43.53
2018-05-25T11:11:16.727Z,42.62
2018-05-25T11:13:44.963Z,41.69
2018-05-25T11:16:14.009Z,42.52
2018-05-25T11:18:42.243Z,42.16
2018-05-25T11:21:10.513Z,41.67
2018-05-25T11:23:39.514Z,42.92
2018-05-25T11:26:07.771Z,43.30
2018-05-25T11:28:36.042Z,45.19
2018-05-25T11:31:05.059Z,44.33
2018-05-25T11:33:33.305Z,45.66
2018-05-25T11:36:01.572Z,44.16
2018-05-25T11:38:30.572Z,45.03
2018-05-25T11:40:58.891Z,43.19
2018-05-25T11:43:27.127Z,43.89
2018-05-25T11:45:55.385Z,44.02
2018-05-25T11:48:24.407Z,45.46
2018-05-25T11:50:52.645Z,45.55
2018-05-25T11:53:20.899Z,42.53
2018-05-25T11:55:49.140Z,41.70
2018-05-25T11:58:18.931Z,42.86
2018-05-25T12:00:47.137Z,42.15
2018-05-25T12:03:16.195Z,41.48
2018-05-25T12:05:45.242Z,42.95
2018-05-25T12:08:14.267Z,38.97
2018-05-25T12:10:42.511Z,40.05
2018-05-25T12:13:10.774Z,42.36
2018-05-25T12:15:39.786Z,39.06
2018-05-25T12:18:08.821Z,38.40
2018-05-25T12:20:37.065Z,38.25
2018-05-25T12:23:06.143Z,40.02
2018-05-25T12:25:34.327Z,40.05
2018-05-25T12:28:02.601Z,40.10
2018-05-25T12:30:31.613Z,40.93
2018-05-25T12:32:59.987Z,39.86
2018-05-25T12:35:28.338Z,39.44
2018-05-25T12:37:57.367Z,40.53
2018-05-25T12:40:25.621Z,38.38
2018-05-25T12:42:55.396Z,38.39
2018-05-25T12:45:24.776Z,36.06
2018-05-25T12:47:53.804Z,36.79
2018-05-25T12:50:22.051Z,35.62
2018-05-25T12:52:50.310Z,36.81
2018-05-25T12:55:18.565Z,36.01
2018-05-25T12:57:46.879Z,36.67
2018-05-25T13:00:15.114Z,38.46
2018-05-25T13:02:43.399Z,37.46
2018-05-25T13:05:11.656Z,36.99
2018-05-25T13:07:39.917Z,36.69
2018-05-25T13:10:08.171Z,37.46
2018-05-25T13:12:36.443Z,37.13
2018-05-25T13:15:04.692Z,37.48
2018-05-25T13:17:32.928Z,38.43
2018-05-25T13:20:01.223Z,38.45
2018-05-25T13:22:29.512Z,41.37
2018-05-25T13:24:57.770Z,39.96
2018-05-25T13:27:26.807Z,38.96
2018-05-25T13:29:55.084Z,40.61
2018-05-25T13:32:23.330Z,38.72
2018-05-25T13:34:51.579Z,39.71
2018-05-25T13:37:19.819Z,36.05
2018-05-25T13:39:48.087Z,35.37
2018-05-25T13:42:16.318Z,37.03
2018-05-25T13:44:44.586Z,39.53
2018-05-25T13:47:12.828Z,39.93
2018-05-25T13:49:41.892Z,38.96
2018-05-25T13:52:10.136Z,41.22
2018-05-25T13:54:39.156Z,42.22
2018-05-25T13:57:07.387Z,41.18
2018-05-25T13:59:36.399Z,41.89
2018-05-25T14:02:05.445Z,41.65
2018-05-25T14:04:34.473Z,41.54
2018-05-25T14:07:02.714Z,41.07
2018-05-25T14:09:30.988Z,39.91
2018-05-25T14:11:59.230Z,39.14
2018-05-25T14:14:27.490Z,40.34
2018-05-25T14:16:55.743Z,38.46
2018-05-25T14:19:24.007Z,38.96
2018-05-25T14:21:52.237Z,39.89
2018-05-25T14:24:20.567Z,39.90
2018-05-25T14:26:49.579Z,37.74
2018-05-25T14:29:17.839Z,38.72
2018-05-25T14:31:46.119Z,40.55
2018-05-25T14:34:14.385Z,42.47
2018-05-25T14:36:42.658Z,42.22
2018-05-25T14:39:11.118Z,41.89
2018-05-25T14:41:39.387Z,41.83
2018-05-25T14:44:07.627Z,40.43
2018-05-25T14:46:35.883Z,40.40
2018-05-25T14:49:05.265Z,40.87
2018-05-25T14:51:33.541Z,39.54
2018-05-25T14:54:01.842Z,39.43
2018-05-25T14:56:30.021Z,40.77
2018-05-25T14:58:58.357Z,41.56
2018-05-25T15:01:26.589Z,41.87
2018-05-25T15:03:54.846Z,38.55
2018-05-25T15:06:24.231Z,40.36
2018-05-25T15:08:52.479Z,40.16
2018-05-25T15:11:20.737Z,39.26
2018-05-25T15:13:48.975Z,39.21
2018-05-25T15:16:17.199Z,39.84
2018-05-25T15:18:45.445Z,37.77
2018-05-25T15:21:14.506Z,39.61
2018-05-25T15:23:43.554Z,39.01
2018-05-25T15:26:12.567Z,39.82
2018-05-25T15:28:40.815Z,39.14
2018-05-25T15:31:09.067Z,38.89
2018-05-25T15:33:37.327Z,39.96
2018-05-25T15:36:05.586Z,39.72
2018-05-25T15:38:33.826Z,38.54
2018-05-25T15:41:02.084Z,38.74
2018-05-25T15:43:30.327Z,38.42
2018-05-25T15:45:59.343Z,38.36
2018-05-25T15:48:28.362Z,39.03
2018-05-25T15:50:56.610Z,38.94
2018-05-25T15:53:24.860Z,37.88
2018-05-25T15:55:53.130Z,37.33
2018-05-25T15:58:21.379Z,37.71
2018-05-25T16:00:50.416Z,38.07
2018-05-25T16:03:18.647Z,37.69
2018-05-25T16:05:47.680Z,38.52
2018-05-25T16:08:15.927Z,37.65
2018-05-25T16:10:44.972Z,38.22
2018-05-25T16:13:13.201Z,37.95
2018-05-25T16:15:41.483Z,38.29
2018-05-25T16:18:09.726Z,38.59
2018-05-25T16:20:37.956Z,37.61
2018-05-25T16:23:06.306Z,37.54
2018-05-25T16:25:34.593Z,36.83
2018-05-25T16:28:02.858Z,38.96
2018-05-25T16:30:31.090Z,38.63
2018-05-25T16:32:59.338Z,38.70
2018-05-25T16:35:27.595Z,37.51
2018-05-25T16:37:55.820Z,36.73
2018-05-25T16:40:24.865Z,37.39
2018-05-25T16:42:53.900Z,36.86
2018-05-25T16:45:22.117Z,37.06
2018-05-25T16:47:50.435Z,36.53
2018-05-25T16:50:18.744Z,35.49
2018-05-25T16:52:46.940Z,35.53
2018-05-25T16:55:15.919Z,36.67
2018-05-25T16:57:44.214Z,34.38
2018-05-25T17:00:12.462Z,33.23
2018-05-25T17:02:40.719Z,33.61
2018-05-25T17:05:08.970Z,34.04
2018-05-25T17:07:37.523Z,34.43
2018-05-25T17:10:05.778Z,34.28
2018-05-25T17:12:35.599Z,34.42
2018-05-25T17:15:03.786Z,33.51
2018-05-25T17:17:32.053Z,33.08
2018-05-25T17:20:00.283Z,31.76
2018-05-25T17:22:28.569Z,32.88
2018-05-25T17:24:56.775Z,36.99
2018-05-25T17:27:25.139Z,38.63
2018-05-25T17:29:54.864Z,40.32
2018-05-25T17:32:23.099Z,39.90
2018-05-25T17:34:52.223Z,40.06
2018-05-25T17:37:21.238Z,41.47
2018-05-25T17:39:50.330Z,41.49
2018-05-25T17:42:18.566Z,41.74
2018-05-25T17:44:48.347Z,42.44
2018-05-25T17:47:16.667Z,42.13
2018-05-25T17:49:45.677Z,42.89
2018-05-25T17:52:15.420Z,43.46
2018-05-25T17:54:43.810Z,43.83
2018-05-25T17:57:12.824Z,43.96
2018-05-25T17:59:41.093Z,44.05
2018-05-25T18:02:10.057Z,44.81
2018-05-25T18:04:39.133Z,45.43
2018-05-25T18:07:07.415Z,45.73
2018-05-25T18:09:37.196Z,46.13
2018-05-25T18:12:05.431Z,46.03
2018-05-25T18:14:33.702Z,46.57
2018-05-25T18:17:02.731Z,46.11
2018-05-25T18:19:30.995Z,45.72
2018-05-25T18:22:00.026Z,46.40
2018-05-25T18:24:28.287Z,47.19
2018-05-25T18:26:57.294Z,47.32
2018-05-25T18:29:26.353Z,47.56
2018-05-25T18:31:54.587Z,47.99
2018-05-25T18:34:23.612Z,48.66
2018-05-25T18:36:51.863Z,49.05
2018-05-25T18:39:20.124Z,49.30
2018-05-25T18:41:48.336Z,49.92
2018-05-25T18:44:17.367Z,50.09
2018-05-25T18:46:45.639Z,50.57
2018-05-25T18:49:13.872Z,51.27
2018-05-25T18:51:42.173Z,51.41
2018-05-25T18:54:29.088Z,52.04
2018-05-25T18:56:57.311Z,52.71
2018-05-25T18:59:25.596Z,53.13
2018-05-25T19:01:53.862Z,54.04
2018-05-25T19:04:22.091Z,55.91
2018-05-25T19:06:50.394Z,58.57
2018-05-25T19:09:18.627Z,59.13
2018-05-25T19:11:46.947Z,59.68
2018-05-25T19:14:15.157Z,61.01
2018-05-25T19:16:43.455Z,60.76
2018-05-25T19:19:11.709Z,60.41
2018-05-25T19:21:39.976Z,61.24
2018-05-25T19:24:08.217Z,61.16
2018-05-25T19:26:36.470Z,61.74
2018-05-25T19:29:04.729Z,62.63
2018-05-25T19:31:32.978Z,62.73
2018-05-25T19:34:01.179Z,64.00
2018-05-25T19:36:29.474Z,63.88
2018-05-25T19:38:58.524Z,64.51
2018-05-25T19:41:26.783Z,64.86
2018-05-25T19:43:55.047Z,65.45
2018-05-25T19:46:24.083Z,65.96
2018-05-25T19:48:52.315Z,66.03
2018-05-25T19:51:20.580Z,66.19
2018-05-25T19:53:48.824Z,66.84
2018-05-25T19:56:17.083Z,66.93
2018-05-25T19:58:45.331Z,67.10
2018-05-25T20:01:13.591Z,67.56
2018-05-25T20:03:42.612Z,68.10
2018-05-25T20:06:11.632Z,68.12
2018-05-25T20:08:39.838Z,68.50
2018-05-25T20:11:08.143Z,68.98
2018-05-25T20:13:36.414Z,68.95
2018-05-25T20:16:04.680Z,69.51
2018-05-25T20:18:32.874Z,69.18
2018-05-25T20:21:01.110Z,69.01
2018-05-25T20:23:30.171Z,70.02
2018-05-25T20:25:58.419Z,70.77
2018-05-25T20:28:26.780Z,70.95
2018-05-25T20:30:55.725Z,70.61
2018-05-25T20:33:25.496Z,70.45
2018-05-25T20:35:53.725Z,68.95
2018-05-25T20:38:21.991Z,70.36
2018-05-25T20:40:50.256Z,69.60
2018-05-25T20:43:18.501Z,69.29
2018-05-25T20:45:46.739Z,69.76
2018-05-25T20:48:15.010Z,69.65
2018-05-25T20:50:43.242Z,70.22
2018-05-25T20:53:11.508Z,70.74
2018-05-25T20:55:39.744Z,70.92
2018-05-25T20:58:07.995Z,70.97
2018-05-25T21:00:36.244Z,70.67
2018-05-25T21:03:04.504Z,70.32
2018-05-25T21:05:32.751Z,70.54
2018-05-25T21:08:01.002Z,69.86
2018-05-25T21:10:30.003Z,69.24
2018-05-25T21:12:58.987Z,69.18
2018-05-25T21:15:27.262Z,68.81
2018-05-25T21:17:55.518Z,68.66
2018-05-25T21:20:23.802Z,69.37
2018-05-25T21:22:52.059Z,69.38
2018-05-25T21:25:21.075Z,69.42
2018-05-25T21:27:50.092Z,69.51
2018-05-25T21:30:18.336Z,69.41
2018-05-25T21:32:46.576Z,69.20
2018-05-25T21:35:14.783Z,69.40
2018-05-25T21:37:43.083Z,69.94
2018-05-25T21:40:11.292Z,70.36
2018-05-25T21:42:39.602Z,70.36
2018-05-25T21:45:07.835Z,70.59
2018-05-25T21:47:36.098Z,70.13
2018-05-25T21:50:05.851Z,70.37
2018-05-25T21:52:34.092Z,70.68
2018-05-25T21:55:03.117Z,70.99
2018-05-25T21:57:31.375Z,71.48
2018-05-25T21:59:59.631Z,71.89
2018-05-25T22:02:27.832Z,71.96
2018-05-25T22:04:57.089Z,72.28
2018-05-25T22:07:26.120Z,72.49
2018-05-25T22:09:54.344Z,72.69
2018-05-25T22:12:23.320Z,73.54
2018-05-25T22:14:51.547Z,74.09
2018-05-25T22:17:20.592Z,73.88
2018-05-25T22:19:48.805Z,73.66
2018-05-25T22:22:17.081Z,73.76
2018-05-25T22:24:45.339Z,73.71
2018-05-25T22:27:14.716Z,74.68
2018-05-25T22:29:42.979Z,74.54
2018-05-25T22:32:11.226Z,74.91
2018-05-25T22:34:40.247Z,75.88
2018-05-25T22:37:09.251Z,76.97
2018-05-25T22:39:38.291Z,77.79
2018-05-25T22:42:05.747Z,78.62
2018-05-25T22:44:51.903Z,78.52
2018-05-25T22:47:37.978Z,79.07
2018-05-25T22:50:24.004Z,79.02
2018-05-25T22:52:56.883Z,79.76
2018-05-25T22:55:25.179Z,80.68
2018-05-25T22:57:53.376Z,80.60
2018-05-25T23:00:21.663Z,80.27
2018-05-25T23:02:49.902Z,80.22
2018-05-25T23:05:18.951Z,80.84
2018-05-25T23:07:47.182Z,80.12
2018-05-25T23:10:16.415Z,79.81
2018-05-25T23:12:44.655Z,79.88
2018-05-25T23:15:12.955Z,80.10
2018-05-25T23:17:41.157Z,80.12
2018-05-25T23:20:09.516Z,80.90
2018-05-25T23:22:37.755Z,81.27
2018-05-25T23:25:06.778Z,81.88
2018-05-25T23:27:35.020Z,82.13
2018-05-25T23:30:03.274Z,82.33
2018-05-25T23:32:31.511Z,82.64
2018-05-25T23:34:59.770Z,82.56
2018-05-25T23:37:28.024Z,82.80
2018-05-25T23:39:56.300Z,83.38
2018-05-25T23:42:25.607Z,82.87
2018-05-25T23:44:54.635Z,82.95
2018-05-25T23:47:22.875Z,83.17
2018-05-25T23:49:51.140Z,83.68
2018-05-25T23:52:19.383Z,84.21
2018-05-25T23:54:48.358Z,84.86
2018-05-25T23:57:16.631Z,85.19
2018-05-25T23:59:45.663Z,85.32
